createdAt,value
2022-09-06T00:01:01.259Z,50.50
2022-09-06T00:03:28.347Z,50.30
2022-09-06T00:05:55.187Z,50.70
2022-09-06T00:08:21.930Z,50.40
2022-09-06T00:10:48.659Z,50.40
2022-09-06T00:13:15.426Z,50.30
2022-09-06T00:15:42.264Z,50.10
2022-09-06T00:18:09.031Z,50.10
2022-09-06T00:20:37.515Z,50.00
2022-09-06T00:23:04.760Z,50.70
2022-09-06T00:25:31.529Z,50.50
2022-09-06T00:27:58.925Z,50.40
2022-09-06T00:30:25.751Z,50.40
2022-09-06T00:35:19.813Z,52.00
2022-09-06T00:37:46.590Z,50.20
2022-09-06T00:40:13.648Z,50.20
2022-09-06T00:42:40.409Z,50.50
2022-09-06T00:45:07.525Z,50.30
2022-09-06T00:47:34.824Z,49.90
2022-09-06T00:50:01.633Z,50.20
2022-09-06T01:41:48.517Z,49.90
2022-09-06T01:44:15.257Z,49.30
2022-09-06T01:46:45.908Z,49.70
2022-09-06T01:49:18.778Z,48.20
2022-09-06T01:52:03.681Z,48.30
2022-09-06T01:54:36.215Z,48.40
2022-09-06T01:57:12.263Z,48.30
2022-09-06T01:59:55.205Z,48.10
2022-09-06T02:02:40.947Z,48.30
2022-09-06T02:05:20.311Z,48.20
2022-09-06T02:07:47.056Z,44.20
2022-09-06T02:10:16.919Z,47.50
2022-09-06T02:12:43.740Z,47.70
2022-09-06T02:15:11.751Z,49.10
2022-09-06T02:17:39.518Z,49.10
2022-09-06T02:20:06.975Z,49.00
2022-09-06T02:22:35.103Z,49.00
2022-09-06T02:25:04.420Z,48.80
2022-09-06T02:27:31.314Z,48.50
2022-09-06T02:29:58.117Z,48.50
2022-09-06T02:32:25.028Z,48.40
2022-09-06T02:34:52.421Z,48.70
2022-09-06T02:37:19.205Z,48.70
2022-09-06T02:39:46.173Z,48.70
2022-09-06T02:42:13.092Z,48.20
2022-09-06T02:44:39.963Z,48.60
2022-09-06T02:47:06.804Z,48.50
2022-09-06T02:49:33.544Z,48.20
2022-09-06T02:52:00.295Z,48.60
2022-09-06T02:54:27.035Z,48.20
2022-09-06T02:56:53.757Z,48.40
2022-09-06T02:59:20.488Z,48.50
2022-09-06T03:01:47.218Z,48.50
2022-09-06T03:04:13.959Z,48.30
2022-09-06T03:06:40.700Z,48.50
2022-09-06T03:09:07.424Z,48.20
2022-09-06T03:11:34.161Z,48.30
2022-09-06T03:14:00.911Z,48.10
2022-09-06T03:16:27.690Z,48.20
2022-09-06T03:18:54.479Z,48.10
2022-09-06T03:21:21.296Z,48.10
2022-09-06T03:23:48.113Z,48.10
2022-09-06T03:26:14.848Z,48.60
2022-09-06T03:28:43.018Z,48.00
2022-09-06T03:31:09.917Z,48.20
2022-09-06T03:33:36.804Z,47.80
2022-09-06T03:36:03.700Z,47.80
2022-09-06T03:38:30.483Z,47.80
2022-09-06T03:40:57.236Z,47.70
2022-09-06T03:43:24.297Z,47.80
2022-09-06T03:45:51.796Z,48.20
2022-09-06T03:48:18.807Z,48.10
2022-09-06T03:50:49.045Z,48.10
2022-09-06T03:53:16.054Z,48.00
2022-09-06T03:55:46.435Z,47.90
2022-09-06T03:58:13.230Z,46.50
2022-09-06T04:00:40.030Z,47.70
2022-09-06T04:03:06.779Z,48.10
2022-09-06T04:05:33.553Z,48.00
2022-09-06T04:08:00.339Z,47.80
2022-09-06T04:10:27.074Z,47.90
2022-09-06T04:12:53.951Z,47.80
2022-09-06T04:15:20.699Z,47.60
2022-09-06T04:17:47.443Z,47.70
2022-09-06T04:20:14.636Z,47.80
2022-09-06T04:22:41.479Z,48.10
2022-09-06T04:25:08.437Z,47.90
2022-09-06T04:27:35.194Z,47.80
2022-09-06T04:30:01.982Z,47.70
2022-09-06T04:32:28.800Z,47.80
2022-09-06T04:34:55.535Z,47.90
2022-09-06T04:37:22.379Z,47.70
2022-09-06T04:39:49.193Z,47.80
2022-09-06T04:42:16.143Z,47.80
2022-09-06T04:44:42.883Z,47.80
2022-09-06T04:47:14.756Z,47.90
2022-09-06T04:49:41.892Z,46.40
2022-09-06T04:52:08.660Z,48.00
2022-09-06T04:54:35.410Z,47.50
2022-09-06T04:57:02.149Z,47.50
2022-09-06T04:59:28.889Z,47.50
2022-09-06T05:01:55.682Z,47.80
2022-09-06T05:04:22.620Z,47.80
2022-09-06T05:06:49.452Z,47.50
2022-09-06T05:09:16.204Z,47.70
2022-09-06T05:11:42.928Z,47.60
2022-09-06T05:14:09.656Z,47.40
2022-09-06T05:16:36.519Z,47.40
2022-09-06T05:19:03.348Z,47.50
2022-09-06T05:21:30.071Z,47.40
2022-09-06T05:23:58.852Z,47.50
2022-09-06T05:26:25.729Z,47.40
2022-09-06T05:28:52.528Z,47.50
2022-09-06T05:31:26.708Z,47.40
2022-09-06T05:33:54.238Z,45.90
2022-09-06T05:36:23.305Z,47.50
2022-09-06T05:38:50.693Z,47.90
2022-09-06T05:41:17.450Z,47.60
2022-09-06T05:43:44.344Z,47.30
2022-09-06T05:46:11.136Z,47.20
2022-09-06T05:48:38.114Z,47.20
2022-09-06T05:51:05.915Z,47.30
2022-09-06T05:53:39.882Z,47.20
2022-09-06T05:56:06.723Z,45.90
2022-09-06T05:58:33.550Z,47.40
2022-09-06T06:01:19.723Z,47.20
2022-09-06T06:03:50.273Z,45.80
2022-09-06T06:06:17.017Z,45.90
2022-09-06T06:08:43.786Z,47.20
2022-09-06T06:11:10.527Z,47.10
2022-09-06T06:13:39.694Z,47.20
2022-09-06T06:16:07.010Z,47.40
2022-09-06T06:18:33.841Z,47.20
2022-09-06T06:21:19.320Z,47.30
2022-09-06T06:23:46.458Z,45.80
2022-09-06T06:26:13.244Z,47.50
2022-09-06T06:28:40.014Z,47.00
2022-09-06T06:31:07.249Z,47.00
2022-09-06T06:33:34.475Z,47.80
2022-09-06T06:36:02.105Z,47.50
2022-09-06T06:38:32.267Z,47.50
2022-09-06T06:41:03.203Z,45.70
2022-09-06T06:43:38.688Z,47.70
2022-09-06T06:46:06.012Z,46.40
2022-09-06T06:48:32.767Z,47.30
2022-09-06T06:50:59.528Z,47.10
2022-09-06T06:53:26.289Z,47.00
2022-09-06T06:55:53.111Z,47.30
2022-09-06T06:58:19.904Z,47.00
2022-09-06T07:00:46.714Z,47.20
2022-09-06T07:03:13.604Z,47.30
2022-09-06T07:08:27.455Z,47.20
2022-09-06T07:10:54.283Z,47.10
2022-09-06T07:13:21.269Z,47.10
2022-09-06T07:15:48.810Z,47.20
2022-09-06T07:18:15.882Z,47.30
2022-09-06T07:26:16.751Z,46.90
2022-09-06T07:28:43.601Z,47.60
2022-09-06T07:33:57.457Z,47.00
2022-09-06T07:36:24.266Z,47.10
2022-09-06T07:38:51.476Z,46.80
2022-09-06T07:41:18.472Z,47.40
2022-09-06T07:43:45.254Z,47.20
2022-09-06T07:46:13.022Z,46.80
2022-09-06T07:48:40.604Z,47.20
2022-09-06T07:51:08.241Z,47.40
2022-09-06T07:53:35.839Z,47.30
2022-09-06T07:56:03.217Z,47.30
2022-09-06T07:58:30.253Z,46.90
2022-09-06T08:01:15.797Z,47.20
2022-09-06T08:03:42.636Z,45.50
2022-09-06T08:06:10.026Z,46.90
2022-09-06T08:11:24.343Z,46.70
2022-09-06T08:13:52.096Z,47.10
2022-09-06T08:16:20.209Z,47.10
2022-09-06T08:18:53.616Z,47.00
2022-09-06T08:21:20.861Z,45.50
2022-09-06T08:23:48.411Z,46.70
2022-09-06T08:26:15.854Z,47.30
2022-09-06T08:28:42.709Z,47.30
2022-09-06T08:31:10.435Z,47.20
2022-09-06T08:33:37.668Z,47.30
2022-09-06T08:36:04.598Z,47.00
2022-09-06T08:38:31.460Z,46.90
2022-09-06T08:41:08.027Z,47.30
2022-09-06T08:43:34.825Z,45.70
2022-09-06T08:46:01.892Z,47.20
2022-09-06T08:48:29.739Z,47.10
2022-09-06T08:51:16.958Z,47.30
2022-09-06T08:53:46.579Z,46.70
2022-09-06T08:56:23.660Z,44.70
2022-09-06T08:58:59.618Z,44.00
2022-09-06T09:01:28.165Z,43.60
2022-09-06T09:03:55.826Z,45.50
2022-09-06T09:06:22.856Z,46.30
2022-09-06T09:09:06.375Z,45.70
2022-09-06T09:11:36.434Z,45.40
2022-09-06T09:14:03.280Z,45.80
2022-09-06T09:16:30.308Z,46.70
2022-09-06T09:18:58.506Z,46.50
2022-09-06T09:21:30.143Z,47.50
2022-09-06T09:23:58.960Z,47.20
2022-09-06T09:26:26.986Z,47.60
2022-09-06T09:29:06.400Z,47.40
2022-09-06T09:31:43.346Z,45.70
2022-09-06T09:34:28.968Z,47.80
2022-09-06T09:40:03.856Z,46.30
2022-09-06T09:42:37.162Z,47.40
2022-09-06T09:45:18.991Z,46.30
2022-09-06T09:47:46.058Z,46.00
2022-09-06T09:50:33.067Z,47.60
2022-09-06T09:53:15.912Z,48.10
2022-09-06T09:55:42.804Z,46.10
2022-09-06T09:58:17.608Z,47.40
2022-09-06T10:00:44.373Z,48.00
2022-09-06T10:03:14.898Z,47.70
2022-09-06T10:05:41.763Z,46.50
2022-09-06T10:08:10.185Z,47.80
2022-09-06T10:10:40.583Z,48.40
2022-09-06T10:13:14.214Z,48.20
2022-09-06T10:15:41.167Z,46.50
2022-09-06T10:18:13.927Z,48.10
2022-09-06T10:20:42.223Z,48.20
2022-09-06T10:26:10.875Z,46.90
2022-09-06T10:28:44.138Z,46.90
2022-09-06T10:31:11.070Z,46.70
2022-09-06T10:33:43.983Z,48.20
2022-09-06T10:36:10.803Z,46.70
2022-09-06T10:38:40.601Z,48.20
2022-09-06T10:41:07.372Z,46.90
2022-09-06T10:43:41.669Z,48.10
2022-09-06T10:46:11.985Z,46.80
2022-09-06T10:48:39.419Z,48.40
2022-09-06T10:51:07.412Z,48.90
2022-09-06T10:53:37.134Z,48.50
2022-09-06T10:56:19.114Z,47.20
2022-09-06T11:01:39.665Z,48.10
2022-09-06T11:04:12.671Z,45.90
2022-09-06T11:06:51.103Z,45.10
2022-09-06T11:09:17.825Z,44.70
2022-09-06T11:11:45.421Z,43.70
2022-09-06T11:14:13.203Z,44.00
2022-09-06T11:16:49.888Z,43.90
2022-09-06T11:19:19.778Z,43.70
2022-09-06T11:21:46.568Z,43.10
2022-09-06T11:24:14.079Z,42.20
2022-09-06T11:26:40.811Z,42.70
2022-09-06T11:29:18.478Z,42.00
2022-09-06T11:34:38.034Z,40.50
2022-09-06T11:37:07.163Z,42.10
2022-09-06T11:42:50.763Z,40.00
2022-09-06T11:45:21.510Z,39.70
2022-09-06T11:47:51.839Z,41.40
2022-09-06T11:50:21.319Z,41.50
2022-09-06T11:53:06.206Z,39.70
2022-09-06T11:55:46.234Z,39.30
2022-09-06T11:58:16.148Z,39.40
2022-09-06T12:00:42.907Z,39.20
2022-09-06T12:06:14.860Z,40.40
2022-09-06T12:08:41.622Z,38.70
2022-09-06T12:11:23.674Z,40.80
2022-09-06T12:13:53.301Z,39.40
2022-09-06T12:16:20.806Z,40.00
2022-09-06T12:18:47.626Z,42.20
2022-09-06T12:21:33.240Z,42.10
2022-09-06T12:24:00.093Z,41.20
2022-09-06T12:26:50.805Z,42.70
2022-09-06T12:29:25.192Z,41.60
2022-09-06T12:31:55.342Z,42.00
2022-09-06T12:34:25.914Z,43.80
2022-09-06T12:36:57.132Z,42.30
2022-09-06T12:39:24.073Z,42.70
2022-09-06T12:42:01.111Z,45.20
2022-09-06T12:44:30.590Z,43.90
2022-09-06T12:46:58.583Z,44.60
2022-09-06T12:49:25.325Z,47.10
2022-09-06T12:51:58.097Z,46.90
2022-09-06T12:54:25.415Z,47.50
2022-09-06T12:56:52.300Z,47.30
2022-09-06T12:59:23.509Z,47.00
2022-09-06T13:01:56.173Z,45.80
2022-09-06T13:04:27.771Z,47.50
2022-09-06T13:06:54.533Z,45.70
2022-09-06T13:09:21.720Z,47.30
2022-09-06T13:11:49.469Z,47.40
2022-09-06T13:14:26.359Z,47.60
2022-09-06T13:16:53.418Z,46.10
2022-09-06T13:19:29.857Z,47.80
2022-09-06T13:21:58.441Z,46.70
2022-09-06T13:24:26.745Z,47.80
2022-09-06T13:26:53.531Z,47.90
2022-09-06T13:29:24.167Z,47.60
2022-09-06T13:31:52.156Z,46.30
2022-09-06T13:34:22.802Z,48.00
2022-09-06T13:36:53.202Z,46.40
2022-09-06T13:39:35.991Z,47.90
2022-09-06T13:42:07.357Z,46.40
2022-09-06T13:44:35.669Z,46.40
2022-09-06T13:47:02.522Z,48.10
2022-09-06T13:49:29.416Z,47.60
2022-09-06T13:52:00.257Z,47.50
2022-09-06T13:54:27.038Z,46.40
2022-09-06T13:56:53.896Z,47.80
2022-09-06T13:59:20.664Z,47.60
2022-09-06T14:01:48.331Z,47.80
2022-09-06T14:04:15.936Z,47.90
2022-09-06T14:06:42.666Z,48.00
2022-09-06T14:09:09.771Z,47.80
2022-09-06T14:11:36.971Z,47.90
2022-09-06T14:14:03.856Z,48.00
2022-09-06T14:16:30.596Z,47.60
2022-09-06T14:18:57.587Z,47.90
2022-09-06T14:21:24.345Z,48.00
2022-09-06T14:23:51.550Z,48.00
2022-09-06T14:26:18.966Z,48.10
2022-09-06T14:28:45.762Z,48.00
2022-09-06T14:31:15.399Z,47.50
2022-09-06T14:33:42.250Z,47.90
2022-09-06T14:36:12.815Z,47.50
2022-09-06T14:38:40.092Z,46.40
2022-09-06T14:41:07.231Z,48.10
2022-09-06T14:43:34.217Z,48.10
2022-09-06T14:46:07.343Z,47.80
2022-09-06T14:48:34.272Z,46.50
2022-09-06T14:51:10.602Z,48.20
2022-09-06T14:53:41.083Z,46.50
2022-09-06T14:56:08.256Z,46.80
2022-09-06T14:58:35.235Z,48.20
2022-09-06T15:01:08.372Z,48.30
2022-09-06T15:03:35.783Z,46.80
2022-09-06T15:06:02.982Z,48.30
2022-09-06T15:08:29.867Z,48.90
2022-09-06T15:10:56.717Z,48.50
2022-09-06T15:13:23.627Z,48.50
2022-09-06T15:15:50.485Z,48.50
2022-09-06T15:18:17.257Z,48.60
2022-09-06T15:20:44.896Z,48.50
2022-09-06T15:23:27.074Z,48.90
2022-09-06T15:25:54.235Z,49.50
2022-09-06T15:28:21.031Z,48.60
2022-09-06T15:30:48.039Z,48.50
2022-09-06T15:33:15.124Z,49.10
2022-09-06T15:35:42.928Z,49.00
2022-09-06T15:38:12.696Z,48.80
2022-09-06T15:40:39.541Z,49.20
2022-09-06T15:43:06.524Z,48.90
2022-09-06T15:45:34.392Z,48.90
2022-09-06T15:48:01.524Z,49.40
2022-09-06T15:50:49.800Z,49.00
2022-09-06T15:53:15.193Z,44.40
2022-09-06T15:55:56.932Z,44.20
2022-09-06T15:58:24.575Z,44.10
2022-09-06T16:01:01.030Z,45.20
2022-09-06T16:03:28.042Z,44.70
2022-09-06T16:08:41.830Z,47.80
2022-09-06T16:11:09.516Z,47.90
2022-09-06T16:13:36.530Z,48.70
2022-09-06T16:16:04.240Z,48.10
2022-09-06T16:18:31.546Z,48.80
2022-09-06T16:20:58.365Z,48.70
2022-09-06T16:23:25.139Z,49.10
2022-09-06T16:25:52.532Z,49.50
2022-09-06T16:28:19.383Z,48.80
2022-09-06T16:30:46.183Z,48.70
2022-09-06T16:33:13.106Z,48.70
2022-09-06T16:35:40.767Z,48.70
2022-09-06T16:38:09.213Z,49.00
2022-09-06T16:40:36.112Z,48.60
2022-09-06T16:43:03.530Z,48.80
2022-09-06T16:45:30.638Z,48.90
2022-09-06T16:47:57.483Z,48.90
2022-09-06T16:50:24.391Z,48.60
2022-09-06T16:52:51.970Z,48.70
2022-09-06T16:55:18.758Z,49.20
2022-09-06T16:57:45.508Z,49.10
2022-09-06T17:00:13.310Z,48.90
2022-09-06T17:02:43.714Z,48.90
2022-09-06T17:05:14.521Z,48.90
2022-09-06T17:07:41.627Z,49.20
2022-09-06T17:10:08.587Z,49.20
2022-09-06T17:12:35.394Z,48.60
2022-09-06T17:15:02.222Z,48.90
2022-09-06T17:17:28.971Z,48.90
2022-09-06T17:19:55.803Z,49.10
2022-09-06T17:22:22.551Z,49.10
2022-09-06T17:24:49.344Z,49.20
2022-09-06T17:27:16.134Z,49.30
2022-09-06T17:29:42.925Z,49.30
2022-09-06T17:32:10.395Z,49.00
2022-09-06T17:34:38.141Z,49.50
2022-09-06T17:37:05.072Z,49.70
2022-09-06T17:39:31.883Z,49.20
2022-09-06T17:41:58.855Z,49.30
2022-09-06T17:44:25.824Z,49.00
2022-09-06T17:47:11.437Z,49.20
2022-09-06T17:49:39.441Z,49.00
2022-09-06T17:52:06.286Z,49.40
2022-09-06T17:54:33.471Z,49.50
2022-09-06T17:57:00.267Z,49.50
2022-09-06T17:59:31.519Z,49.30
2022-09-06T18:02:01.136Z,49.90
2022-09-06T18:04:28.102Z,49.60
2022-09-06T18:06:57.287Z,48.90
2022-09-06T18:09:24.034Z,49.50
2022-09-06T18:11:50.830Z,50.10
2022-09-06T18:14:18.094Z,49.60
2022-09-06T18:16:49.307Z,49.90
2022-09-06T18:19:16.338Z,48.70
2022-09-06T18:21:43.248Z,49.30
2022-09-06T18:24:10.301Z,49.40
2022-09-06T18:26:37.495Z,49.70
2022-09-06T18:29:07.020Z,49.70
2022-09-06T18:31:33.837Z,49.60
2022-09-06T18:34:00.722Z,49.40
2022-09-06T18:36:31.972Z,49.50
2022-09-06T18:39:05.120Z,49.90
2022-09-06T18:41:50.704Z,48.10
2022-09-06T18:44:17.659Z,49.60
2022-09-06T18:46:44.776Z,49.60
2022-09-06T18:49:13.772Z,49.60
2022-09-06T18:51:40.827Z,49.50
2022-09-06T18:54:07.687Z,49.90
2022-09-06T18:56:34.505Z,49.40
2022-09-06T18:59:02.216Z,49.50
2022-09-06T19:01:29.646Z,49.60
2022-09-06T19:03:57.356Z,50.00
2022-09-06T19:06:24.244Z,50.00
2022-09-06T19:08:53.769Z,49.70
2022-09-06T19:11:20.864Z,49.60
2022-09-06T19:13:49.795Z,50.10
2022-09-06T19:16:16.652Z,50.30
2022-09-06T19:18:43.446Z,50.70
2022-09-06T19:21:11.297Z,50.40
2022-09-06T19:23:38.905Z,50.80
2022-09-06T19:26:07.129Z,50.60
2022-09-06T19:28:34.165Z,50.80
2022-09-06T19:31:05.213Z,51.00
2022-09-06T19:33:36.175Z,51.10
2022-09-06T19:36:11.524Z,51.10
2022-09-06T19:39:01.487Z,50.40
2022-09-06T19:41:26.073Z,50.90
2022-09-06T19:43:53.355Z,51.00
2022-09-06T19:46:20.619Z,51.50
2022-09-06T19:48:48.115Z,51.60
2022-09-06T19:51:15.193Z,51.50
2022-09-06T19:53:42.094Z,51.50
2022-09-06T19:56:16.116Z,51.40
2022-09-06T19:58:43.132Z,50.20
2022-09-06T20:01:10.716Z,51.70
2022-09-06T20:03:38.195Z,52.20
2022-09-06T20:06:05.445Z,52.40
2022-09-06T20:08:32.363Z,52.00
2022-09-06T20:10:59.281Z,51.70
2022-09-06T20:13:26.365Z,51.60
2022-09-06T20:15:53.179Z,52.20
2022-09-06T20:18:20.535Z,51.90
2022-09-06T20:20:47.332Z,52.10
2022-09-06T20:23:14.117Z,52.30
2022-09-06T20:25:40.863Z,52.00
2022-09-06T20:28:07.906Z,52.50
2022-09-06T20:30:34.713Z,52.30
2022-09-06T20:33:01.473Z,51.90
2022-09-06T20:35:28.248Z,52.00
2022-09-06T20:37:55.025Z,51.50
2022-09-06T20:40:21.768Z,51.50
2022-09-06T20:42:48.510Z,51.70
2022-09-06T20:45:15.583Z,51.40
2022-09-06T20:47:42.350Z,51.90
2022-09-06T20:50:09.362Z,49.30
2022-09-06T20:52:36.083Z,45.60
2022-09-06T20:55:02.837Z,45.50
2022-09-06T20:57:29.585Z,46.80
2022-09-06T20:59:56.339Z,50.10
2022-09-06T21:02:23.142Z,49.80
2022-09-06T21:04:49.945Z,50.00
2022-09-06T21:07:16.706Z,50.10
2022-09-06T21:09:43.468Z,49.80
2022-09-06T21:12:10.370Z,50.00
2022-09-06T21:14:37.148Z,49.80
2022-09-06T21:17:03.892Z,49.80
2022-09-06T21:19:30.727Z,50.00
2022-09-06T21:21:57.471Z,50.00
2022-09-06T21:24:24.335Z,50.00
2022-09-06T21:26:51.146Z,49.90
2022-09-06T21:29:17.935Z,50.10
2022-09-06T21:31:45.240Z,49.60
2022-09-06T21:34:16.993Z,50.00
2022-09-06T21:36:44.486Z,49.90
2022-09-06T21:39:12.277Z,49.90
2022-09-06T21:41:39.492Z,50.00
2022-09-06T21:44:06.763Z,50.30
2022-09-06T21:46:34.506Z,49.90
2022-09-06T21:49:08.955Z,49.80
2022-09-06T21:51:35.821Z,48.20
2022-09-06T21:54:06.195Z,49.40
2022-09-06T21:56:34.156Z,49.20
2022-09-06T21:59:01.104Z,49.80
2022-09-06T22:01:28.716Z,49.40
2022-09-06T22:03:55.575Z,49.80
2022-09-06T22:06:23.312Z,49.60
2022-09-06T22:08:50.090Z,47.50
2022-09-06T22:11:20.486Z,47.50
2022-09-06T22:13:47.277Z,47.70
2022-09-06T22:16:14.527Z,48.90
2022-09-06T22:18:41.378Z,49.30
2022-09-06T22:21:09.149Z,49.00
2022-09-06T22:23:36.012Z,49.10
2022-09-06T22:26:12.897Z,48.90
2022-09-06T22:28:40.342Z,47.60
2022-09-06T22:31:07.564Z,49.20
2022-09-06T22:33:34.813Z,49.50
2022-09-06T22:36:01.861Z,49.20
2022-09-06T22:38:29.030Z,48.90
2022-09-06T22:40:57.227Z,49.40
2022-09-06T22:43:24.106Z,49.30
2022-09-06T22:45:52.074Z,49.20
2022-09-06T22:48:19.136Z,49.10
2022-09-06T22:50:45.955Z,48.90
2022-09-06T22:53:12.737Z,49.10
2022-09-06T22:55:39.519Z,49.00
2022-09-06T22:58:06.380Z,49.00
2022-09-06T23:00:35.816Z,49.00
2022-09-06T23:03:02.625Z,49.50
2022-09-06T23:05:30.547Z,49.00
2022-09-06T23:07:57.988Z,49.50
2022-09-06T23:10:24.756Z,49.10
2022-09-06T23:12:52.116Z,49.00
2022-09-06T23:15:18.851Z,49.40
2022-09-06T23:17:45.641Z,48.90
2022-09-06T23:20:12.539Z,48.90
2022-09-06T23:22:39.315Z,48.70
2022-09-06T23:25:07.190Z,48.90
2022-09-06T23:27:34.055Z,48.80
2022-09-06T23:30:01.140Z,48.80
2022-09-06T23:32:28.076Z,49.00
2022-09-06T23:34:55.814Z,48.90
2022-09-06T23:37:22.579Z,49.10
2022-09-06T23:39:49.455Z,48.70
2022-09-06T23:42:16.276Z,48.80
2022-09-06T23:44:43.097Z,48.70
2022-09-06T23:47:09.869Z,48.90
2022-09-06T23:49:36.638Z,48.90
2022-09-06T23:52:03.588Z,48.80
2022-09-06T23:54:30.358Z,48.90
2022-09-06T23:56:57.106Z,48.60
2022-09-06T23:59:23.987Z,48.60
